Time;durP1;ratioP1;P1;durP2;ratioP2;P2;SDS_P1;SDS_P2;PMS_P1;PMS_P2;Temp;Humidity;BMP_temperature;BMP_pressure;BME280_temperature;BME280_humidity;BME280_pressure;Samples;Min_cycle;Max_cycle;Signal;HPM_P1;HPM_P2
2022/07/18 00:03:42;;;;;;;3.35;0.20;;;17.40;83.60;;;;;;10308959;28;20073;-61
2022/07/18 00:08:44;;;;;;;1.35;0.30;;;17.40;83.60;;;;;;10296842;28;20058;-61
2022/07/18 00:13:46;;;;;;;0.50;0.30;;;17.30;85.00;;;;;;10293468;28;20050;-60
2022/07/18 00:18:48;;;;;;;3.22;0.30;;;17.30;85.20;;;;;;10290830;28;20058;-60
2022/07/18 00:23:50;;;;;;;1.85;0.30;;;17.10;85.90;;;;;;10297369;28;20058;-62
2022/07/18 00:28:52;;;;;;;2.22;0.30;;;17.10;86.90;;;;;;10288853;28;20050;-60
2022/07/18 00:33:53;;;;;;;1.75;0.35;;;17.10;87.50;;;;;;10278345;28;20050;-61
2022/07/18 00:38:56;;;;;;;6.85;0.35;;;17.00;88.00;;;;;;10285675;28;20098;-61
2022/07/18 00:43:57;;;;;;;2.35;0.43;;;16.90;89.10;;;;;;10289506;28;20046;-61
2022/07/18 00:48:59;;;;;;;2.63;0.40;;;16.80;90.20;;;;;;10288746;28;20061;-61
2022/07/18 00:54:03;;;;;;;5.47;0.30;;;16.70;90.10;;;;;;10307484;28;20053;-61
2022/07/18 00:59:04;;;;;;;1.23;0.35;;;16.70;90.20;;;;;;10299858;28;20050;-60
2022/07/18 01:04:06;;;;;;;0.40;0.30;;;16.50;90.40;;;;;;10302797;28;20378;-60
2022/07/18 01:09:08;;;;;;;1.55;0.40;;;16.60;89.20;;;;;;10293835;28;20101;-61
2022/07/18 01:14:11;;;;;;;4.05;0.30;;;16.60;89.60;;;;;;10294976;28;20054;-61
2022/07/18 01:19:13;;;;;;;3.88;0.40;;;16.50;90.70;;;;;;10287429;28;20065;-60
2022/07/18 01:24:14;;;;;;;1.52;0.30;;;16.40;90.90;;;;;;10300477;28;20104;-60
2022/07/18 01:29:16;;;;;;;1.38;0.28;;;16.40;91.20;;;;;;10287307;28;20204;-60
2022/07/18 01:34:23;;;;;;;1.63;0.40;;;16.30;91.30;;;;;;10301371;28;20050;-60
2022/07/18 01:39:25;;;;;;;1.73;0.38;;;16.30;91.50;;;;;;10301804;28;20057;-60
2022/07/18 01:44:28;;;;;;;2.42;0.30;;;16.10;91.70;;;;;;10297907;28;20057;-60
2022/07/18 01:49:30;;;;;;;1.30;0.30;;;16.00;91.90;;;;;;10291778;28;20050;-61
2022/07/18 01:54:34;;;;;;;1.63;0.45;;;15.90;92.10;;;;;;10300379;28;20051;-60
2022/07/18 01:59:36;;;;;;;2.40;0.30;;;15.90;92.30;;;;;;10274206;28;20043;-60
2022/07/18 02:09:59;;;;;;;0.35;0.20;;;15.70;92.90;;;;;;10254342;28;20039;-61
2022/07/18 02:15:03;;;;;;;0.35;0.22;;;15.70;93.10;;;;;;10261249;28;20557;-61
2022/07/18 02:20:08;;;;;;;0.60;0.30;;;15.70;93.20;;;;;;10247919;28;20047;-61
2022/07/18 02:25:10;;;;;;;1.23;0.30;;;15.70;93.40;;;;;;10263638;28;20050;-61
2022/07/18 02:30:12;;;;;;;0.70;0.22;;;15.70;93.80;;;;;;10252713;28;20043;-61
2022/07/18 02:35:13;;;;;;;3.08;0.30;;;15.70;94.10;;;;;;10257412;28;20058;-61
2022/07/18 02:40:15;;;;;;;2.58;0.40;;;15.60;94.00;;;;;;10257204;28;20455;-61
2022/07/18 02:45:17;;;;;;;2.08;0.20;;;15.50;94.20;;;;;;10253674;28;20051;-61
2022/07/18 02:50:19;;;;;;;1.23;0.30;;;15.50;94.50;;;;;;10256395;28;20419;-61
2022/07/18 02:55:22;;;;;;;1.70;0.30;;;15.40;95.00;;;;;;10246708;28;20497;-61
2022/07/18 03:00:24;;;;;;;1.65;0.50;;;15.40;95.20;;;;;;10260044;28;20493;-61
2022/07/18 03:05:26;;;;;;;0.60;0.20;;;15.30;95.60;;;;;;10252704;28;20051;-61
2022/07/18 03:10:27;;;;;;;2.88;0.22;;;15.20;95.90;;;;;;10288154;28;20473;-61
2022/07/18 03:15:29;;;;;;;0.93;0.25;;;15.20;96.10;;;;;;10294782;28;20050;-62
2022/07/18 03:20:31;;;;;;;2.08;1.00;;;15.20;96.60;;;;;;10291951;28;20544;-62
2022/07/18 03:25:33;;;;;;;2.25;0.43;;;15.20;96.70;;;;;;10292586;28;20054;-62
2022/07/18 03:30:35;;;;;;;2.00;0.30;;;15.20;96.90;;;;;;10298437;28;20482;-61
2022/07/18 03:35:36;;;;;;;2.53;0.30;;;15.10;97.60;;;;;;10284710;28;20055;-65
2022/07/18 03:40:38;;;;;;;2.78;0.50;;;15.00;97.50;;;;;;10282010;28;20054;-64
2022/07/18 03:45:40;;;;;;;1.75;0.30;;;15.00;97.30;;;;;;10281104;28;20386;-64
2022/07/18 03:50:47;;;;;;;5.47;0.30;;;15.00;97.50;;;;;;10299853;28;20057;-65
2022/07/18 03:55:48;;;;;;;1.23;0.20;;;15.00;97.60;;;;;;10279573;28;20074;-64
2022/07/18 04:00:51;;;;;;;0.82;0.40;;;14.90;97.90;;;;;;10273520;28;20054;-65
2022/07/18 04:05:53;;;;;;;1.13;0.20;;;15.00;98.20;;;;;;10294545;28;20560;-65
2022/07/18 04:10:54;;;;;;;2.10;0.30;;;15.00;98.10;;;;;;10293534;28;20122;-64
2022/07/18 04:15:56;;;;;;;2.88;0.30;;;15.00;98.40;;;;;;10293652;28;20390;-65
2022/07/18 04:20:58;;;;;;;4.70;0.22;;;14.90;98.20;;;;;;10301616;28;20038;-65
2022/07/18 04:26:01;;;;;;;1.45;0.30;;;14.90;98.40;;;;;;10311512;28;20043;-64
2022/07/18 04:31:03;;;;;;;1.63;0.57;;;15.00;98.50;;;;;;10264628;28;20047;-64
2022/07/18 04:36:06;;;;;;;3.63;0.30;;;15.10;99.00;;;;;;10288870;28;20408;-61
2022/07/18 04:41:07;;;;;;;2.88;0.25;;;15.10;98.60;;;;;;10299967;28;20105;-69
2022/07/18 04:46:09;;;;;;;1.10;0.22;;;15.20;99.10;;;;;;10299097;28;20057;-69
2022/07/18 04:51:11;;;;;;;1.10;0.40;;;15.20;98.90;;;;;;10292004;28;20050;-69
2022/07/18 04:56:12;;;;;;;5.22;0.32;;;15.20;99.20;;;;;;10273155;28;20058;-69
2022/07/18 05:01:14;;;;;;;1.30;0.30;;;15.20;99.20;;;;;;10300183;28;20038;-70
2022/07/18 05:06:16;;;;;;;3.10;0.45;;;15.30;99.50;;;;;;10285297;28;20043;-69
2022/07/18 05:11:18;;;;;;;1.48;0.30;;;15.40;99.30;;;;;;10297837;28;20043;-69
2022/07/18 05:16:19;;;;;;;1.17;0.20;;;15.50;99.20;;;;;;10284121;28;20050;-70
2022/07/18 05:21:21;;;;;;;0.70;0.20;;;15.70;98.90;;;;;;10277189;28;20077;-69
2022/07/18 05:26:23;;;;;;;0.80;0.20;;;15.80;98.80;;;;;;10288295;28;20043;-70
2022/07/18 05:31:25;;;;;;;1.77;0.20;;;15.90;98.90;;;;;;10299465;28;20042;-70
2022/07/18 05:36:26;;;;;;;2.38;0.25;;;16.10;98.60;;;;;;10306599;28;20046;-70
2022/07/18 05:41:28;;;;;;;0.80;0.28;;;16.20;98.00;;;;;;10275321;28;20045;-69
2022/07/18 05:46:30;;;;;;;0.63;0.20;;;16.30;97.80;;;;;;10288072;28;20050;-69
2022/07/18 05:51:32;;;;;;;0.75;0.22;;;16.50;98.00;;;;;;10299938;28;20161;-68
2022/07/18 05:56:34;;;;;;;1.23;0.30;;;16.70;97.10;;;;;;10289503;28;20050;-69
2022/07/18 06:01:36;;;;;;;2.97;0.40;;;16.80;97.60;;;;;;10297423;28;20057;-68
2022/07/18 06:06:38;;;;;;;1.30;0.50;;;17.10;97.80;;;;;;10311574;28;20108;-69
2022/07/18 06:11:40;;;;;;;3.03;0.20;;;17.20;97.40;;;;;;10292342;28;20688;-69
2022/07/18 06:16:41;;;;;;;1.95;0.30;;;17.50;96.90;;;;;;10308735;28;20101;-65
2022/07/18 06:21:43;;;;;;;1.00;0.30;;;17.60;96.10;;;;;;10312815;28;20054;-66
2022/07/18 06:26:45;;;;;;;1.85;0.30;;;17.90;95.60;;;;;;10293336;28;20066;-66
2022/07/18 06:31:47;;;;;;;4.97;0.20;;;18.20;95.30;;;;;;10293828;28;20058;-66
2022/07/18 06:36:49;;;;;;;1.08;0.25;;;18.50;94.60;;;;;;10299620;28;20055;-66
2022/07/18 06:41:50;;;;;;;1.90;0.20;;;18.70;94.20;;;;;;10286400;28;20058;-66
2022/07/18 06:46:52;;;;;;;2.15;0.17;;;19.00;94.40;;;;;;10320636;28;20121;-66
2022/07/18 06:51:54;;;;;;;2.15;0.20;;;19.30;94.00;;;;;;10289234;28;20074;-66
2022/07/18 06:57:06;;;;;;;0.95;0.30;;;19.50;93.20;;;;;;10306974;28;20109;-66
2022/07/18 07:02:08;;;;;;;2.37;0.30;;;19.80;92.40;;;;;;10300781;28;20057;-67
2022/07/18 07:07:10;;;;;;;1.40;0.20;;;20.10;91.50;;;;;;10293406;28;20053;-67
2022/07/18 07:12:13;;;;;;;0.20;0.17;;;20.30;90.70;;;;;;10257930;28;20050;-67
2022/07/18 07:17:14;;;;;;;2.55;0.30;;;20.60;88.50;;;;;;10260951;28;20047;-67
2022/07/18 07:22:16;;;;;;;0.20;0.20;;;20.80;85.00;;;;;;10258080;28;20046;-67
2022/07/18 07:27:18;;;;;;;5.43;0.85;;;21.00;83.90;;;;;;10258880;28;20534;-65
2022/07/18 07:32:19;;;;;;;4.78;0.40;;;21.20;81.20;;;;;;10266972;28;20113;-66
2022/07/18 07:37:21;;;;;;;2.35;0.20;;;21.50;80.60;;;;;;10267222;28;20061;-66
2022/07/18 07:42:23;;;;;;;0.75;0.20;;;21.70;80.80;;;;;;10250584;28;20059;-66
2022/07/18 07:47:25;;;;;;;0.32;0.30;;;21.90;79.60;;;;;;10252130;28;20050;-66
2022/07/18 07:52:28;;;;;;;3.28;0.20;;;22.10;75.10;;;;;;10254718;28;20055;-64
2022/07/18 07:57:29;;;;;;;1.08;0.28;;;22.30;75.00;;;;;;10262590;28;20051;-65
2022/07/18 08:02:36;;;;;;;;;;;22.50;72.80;;;;;;10229179;28;20411;-64
2022/07/18 08:07:37;;;;;;;5.15;0.20;;;22.80;70.60;;;;;;10260971;28;19934;-64
2022/07/18 08:12:39;;;;;;;0.28;0.17;;;22.90;72.00;;;;;;10269937;28;20054;-64
2022/07/18 08:17:41;;;;;;;4.35;0.20;;;23.00;68.00;;;;;;10264889;28;20057;-64
2022/07/18 08:22:58;;;;;;;5.97;0.20;;;23.20;67.50;;;;;;10269047;28;20058;-65
2022/07/18 08:28:01;;;;;;;0.43;0.20;;;23.40;64.50;;;;;;10259067;28;20047;-65
2022/07/18 08:33:03;;;;;;;1.98;0.20;;;23.60;66.40;;;;;;10239121;28;20127;-65
2022/07/18 08:38:05;;;;;;;2.28;0.20;;;23.70;65.40;;;;;;10271752;28;20114;-65
2022/07/18 08:43:07;;;;;;;3.30;0.20;;;24.00;64.10;;;;;;10270968;28;20047;-65
2022/07/18 08:48:25;;;;;;;4.80;0.50;;;24.10;63.30;;;;;;10266604;28;20507;-65
2022/07/18 08:53:28;;;;;;;0.47;0.15;;;24.40;64.50;;;;;;10260955;28;20054;-65
2022/07/18 08:58:30;;;;;;;3.05;0.40;;;24.40;62.50;;;;;;10265615;28;20054;-65
2022/07/18 09:04:14;;;;;;;2.28;0.30;;;24.80;64.20;;;;;;10278148;28;20057;-65
2022/07/18 09:09:12;;;;;;;1.35;0.40;;;25.00;63.60;;;;;;10280933;28;20063;-65
2022/07/18 09:14:29;;;;;;;4.73;0.13;;;25.30;62.30;;;;;;10270932;28;20065;-66
2022/07/18 09:19:31;;;;;;;3.75;0.25;;;25.70;60.60;;;;;;10262999;28;20038;-64
2022/07/18 09:24:49;;;;;;;3.17;0.93;;;25.70;59.80;;;;;;10278595;28;20043;-66
2022/07/18 09:30:15;;;;;;;1.90;0.30;;;26.00;61.00;;;;;;10250052;28;20544;-66
2022/07/18 09:35:23;;;;;;;1.20;0.20;;;26.30;57.80;;;;;;10261285;28;20109;-63
2022/07/18 09:40:33;;;;;;;0.68;0.20;;;26.50;59.50;;;;;;10271637;28;20376;-65
2022/07/18 09:45:49;;;;;;;1.00;0.20;;;26.70;55.20;;;;;;10278290;28;20100;-65
2022/07/18 09:50:55;;;;;;;;;;;27.00;52.00;;;;;;10270758;28;20535;-65
2022/07/18 09:56:00;;;;;;;0.80;0.30;;;27.20;52.10;;;;;;10283938;28;19928;-66
2022/07/18 10:01:03;;;;;;;;;;;27.60;50.90;;;;;;10262993;28;20050;-66
2022/07/18 10:06:05;;;;;;;2.55;0.28;;;27.70;50.60;;;;;;10268323;28;19930;-64
2022/07/18 10:11:07;;;;;;;1.80;0.30;;;27.90;50.40;;;;;;10255371;28;20391;-65
2022/07/18 10:16:09;;;;;;;0.75;0.20;;;28.10;49.50;;;;;;10245835;28;20098;-65
2022/07/18 10:21:12;;;;;;;0.90;0.20;;;28.40;51.00;;;;;;10255627;28;20094;-66
2022/07/18 10:26:21;;;;;;;1.35;0.50;;;28.50;47.30;;;;;;10253787;28;20482;-65
2022/07/18 10:31:34;;;;;;;0.43;0.17;;;28.70;48.20;;;;;;10246315;28;20050;-65
2022/07/18 10:36:39;;;;;;;2.05;0.20;;;29.00;49.70;;;;;;10261687;28;20098;-65
2022/07/18 10:41:43;;;;;;;2.13;0.20;;;29.00;46.70;;;;;;10249254;28;20066;-65
2022/07/18 10:47:05;;;;;;;0.80;0.20;;;29.30;46.90;;;;;;10256630;28;20074;-65
2022/07/18 10:52:07;;;;;;;3.60;0.30;;;29.70;46.30;;;;;;10259525;28;20491;-65
2022/07/18 10:57:10;;;;;;;1.50;0.30;;;29.90;46.10;;;;;;10249520;28;20078;-65
2022/07/18 11:02:12;;;;;;;4.28;0.43;;;30.10;44.80;;;;;;10269144;28;20394;-65
2022/07/18 11:07:15;;;;;;;2.58;0.30;;;30.30;44.80;;;;;;10252987;28;20050;-65
2022/07/18 11:12:17;;;;;;;5.25;0.75;;;30.20;44.60;;;;;;10247756;28;20070;-66
2022/07/18 11:17:19;;;;;;;1.38;0.22;;;30.40;44.80;;;;;;10280972;28;20038;-66
2022/07/18 11:22:41;;;;;;;0.57;0.20;;;30.70;46.40;;;;;;10250599;28;20376;-65
2022/07/18 11:27:50;;;;;;;1.45;0.25;;;31.10;46.00;;;;;;10264271;28;20134;-65
2022/07/18 11:32:52;;;;;;;4.28;0.30;;;31.30;44.70;;;;;;10264880;28;20050;-65
2022/07/18 11:37:55;;;;;;;4.78;0.30;;;31.70;44.70;;;;;;10267511;28;20055;-65
2022/07/18 11:42:57;;;;;;;1.27;0.10;;;31.80;45.10;;;;;;10253380;28;20059;-65
2022/07/18 11:47:58;;;;;;;1.02;0.28;;;32.30;43.50;;;;;;10263124;28;20046;-66
2022/07/18 11:53:00;;;;;;;2.30;0.30;;;32.40;44.60;;;;;;10269618;28;20039;-66
2022/07/18 11:58:16;;;;;;;4.03;0.38;;;32.30;44.20;;;;;;10260240;28;20055;-66
2022/07/18 12:03:20;;;;;;;1.48;0.20;;;32.80;43.40;;;;;;10265924;28;20054;-65
2022/07/18 12:08:31;;;;;;;1.88;0.20;;;32.70;42.50;;;;;;10263174;28;20378;-65
2022/07/18 12:14:04;;;;;;;5.20;0.20;;;32.90;42.10;;;;;;10263815;28;20050;-65
2022/07/18 12:19:10;;;;;;;0.40;0.30;;;33.10;42.20;;;;;;10298387;28;20042;-64
2022/07/18 12:24:32;;;;;;;1.58;0.20;;;32.70;42.80;;;;;;10307527;28;20054;-65
2022/07/18 12:30:04;;;;;;;1.33;0.20;;;33.30;42.50;;;;;;10317249;28;20051;-65
2022/07/18 12:35:09;;;;;;;0.75;0.13;;;33.50;42.20;;;;;;10315194;28;20073;-65
2022/07/18 12:40:11;;;;;;;0.35;0.17;;;33.20;41.70;;;;;;10318857;28;20030;-65
2022/07/18 12:45:26;;;;;;;1.80;0.30;;;33.10;41.10;;;;;;10318005;28;20046;-64
2022/07/18 12:50:28;;;;;;;0.93;0.20;;;32.90;42.00;;;;;;10313965;28;20101;-65
2022/07/18 12:55:30;;;;;;;0.47;0.10;;;32.60;41.20;;;;;;10321629;28;20109;-65
2022/07/18 13:00:33;;;;;;;2.40;0.20;;;32.90;41.60;;;;;;10318904;28;20457;-64
2022/07/18 13:05:35;;;;;;;0.25;0.20;;;33.10;41.80;;;;;;10319288;28;20085;-64
2022/07/18 13:10:40;;;;;;;0.50;0.30;;;33.10;40.80;;;;;;10282624;28;20055;-64
2022/07/18 13:15:42;;;;;;;0.43;0.20;;;33.30;40.80;;;;;;10311598;28;20496;-64
2022/07/18 13:20:44;;;;;;;3.50;0.20;;;33.50;41.10;;;;;;10302357;28;20057;-65
2022/07/18 13:25:46;;;;;;;1.98;0.30;;;33.80;42.30;;;;;;10296298;28;20059;-65
2022/07/18 13:30:47;;;;;;;5.13;0.40;;;34.00;41.40;;;;;;10302114;28;20069;-64
2022/07/18 13:35:49;;;;;;;1.10;0.15;;;34.30;41.80;;;;;;10293320;28;20053;-64
2022/07/18 13:40:52;;;;;;;3.80;0.20;;;34.40;40.30;;;;;;10292869;28;20046;-64
2022/07/18 13:45:53;;;;;;;2.72;0.30;;;34.00;40.10;;;;;;10298949;28;20438;-64
2022/07/18 13:50:55;;;;;;;1.65;0.20;;;34.00;40.10;;;;;;10288240;28;20059;-65
2022/07/18 13:55:57;;;;;;;3.35;0.28;;;33.80;40.00;;;;;;10300502;28;21009;-64
2022/07/18 14:00:59;;;;;;;0.90;0.20;;;33.70;40.10;;;;;;10288143;28;20048;-64
2022/07/18 14:06:00;;;;;;;3.08;0.30;;;34.40;40.70;;;;;;10304808;28;20108;-65
2022/07/18 14:11:03;;;;;;;1.52;0.30;;;35.00;39.70;;;;;;10297361;28;20057;-65
2022/07/18 14:16:04;;;;;;;1.85;0.30;;;35.50;39.80;;;;;;10287735;28;20050;-66
2022/07/18 14:21:06;;;;;;;0.73;0.17;;;36.10;39.90;;;;;;10308317;28;20517;-65
2022/07/18 14:26:10;;;;;;;1.38;0.25;;;36.50;38.60;;;;;;10292001;28;20050;-65
2022/07/18 14:31:12;;;;;;;2.55;0.30;;;36.50;39.10;;;;;;10304973;28;20046;-65
2022/07/18 14:36:14;;;;;;;1.67;0.20;;;36.60;39.30;;;;;;10291583;28;20149;-65
2022/07/18 14:41:16;;;;;;;3.75;0.38;;;36.10;38.60;;;;;;10286952;28;20066;-64
2022/07/18 14:46:17;;;;;;;0.88;0.30;;;35.40;38.90;;;;;;10318450;28;20050;-64
2022/07/18 14:51:19;;;;;;;4.55;0.57;;;36.50;39.20;;;;;;10296823;28;20126;-64
2022/07/18 14:56:21;;;;;;;0.88;0.20;;;36.80;38.90;;;;;;10276269;28;20389;-65
2022/07/18 15:01:23;;;;;;;2.30;0.47;;;36.90;38.30;;;;;;10292315;28;20483;-65
2022/07/18 15:06:25;;;;;;;0.63;0.25;;;37.40;37.90;;;;;;10284316;28;20555;-64
2022/07/18 15:11:26;;;;;;;2.10;0.30;;;37.40;38.00;;;;;;10298927;28;20054;-64
2022/07/18 15:16:28;;;;;;;1.65;0.30;;;37.70;39.10;;;;;;10282309;28;20564;-65
2022/07/18 15:21:30;;;;;;;0.70;0.13;;;37.80;37.70;;;;;;10307503;28;20492;-64
2022/07/18 15:26:32;;;;;;;2.40;0.30;;;37.70;37.30;;;;;;10303602;28;20050;-64
2022/07/18 15:31:34;;;;;;;2.65;0.40;;;37.90;38.40;;;;;;10289594;28;20054;-65
2022/07/18 15:36:36;;;;;;;2.75;0.30;;;37.50;37.70;;;;;;10282068;28;20051;-65
2022/07/18 15:41:38;;;;;;;0.82;0.20;;;37.90;38.30;;;;;;10301137;28;20046;-63
2022/07/18 15:46:40;;;;;;;3.63;0.20;;;38.00;37.70;;;;;;10278324;28;20047;-64
2022/07/18 15:51:42;;;;;;;1.25;0.20;;;38.00;37.30;;;;;;10289766;28;20047;-64
2022/07/18 15:56:44;;;;;;;0.97;0.30;;;38.00;37.00;;;;;;10286650;28;20055;-63
2022/07/18 16:01:47;;;;;;;0.82;0.30;;;37.70;36.80;;;;;;10270465;28;20050;-63
2022/07/18 16:06:49;;;;;;;1.88;0.25;;;37.70;37.10;;;;;;10293626;28;20042;-64
2022/07/18 16:11:51;;;;;;;2.22;0.28;;;37.50;37.20;;;;;;10289179;28;20141;-64
2022/07/18 16:16:53;;;;;;;2.25;0.30;;;37.60;37.10;;;;;;10299036;28;20052;-64
2022/07/18 16:21:57;;;;;;;3.40;0.30;;;37.20;37.20;;;;;;10307930;28;20600;-64
2022/07/18 16:26:59;;;;;;;1.83;0.30;;;37.30;37.20;;;;;;10301007;28;20453;-64
2022/07/18 16:32:01;;;;;;;1.67;0.30;;;37.60;37.20;;;;;;10282803;28;20453;-64
2022/07/18 16:37:02;;;;;;;3.25;0.35;;;37.90;37.20;;;;;;10278493;28;20513;-64
2022/07/18 16:42:05;;;;;;;7.10;0.30;;;37.80;37.50;;;;;;10282774;28;20046;-64
2022/07/18 16:47:07;;;;;;;0.60;0.30;;;37.00;37.00;;;;;;10289867;28;20445;-65
2022/07/18 16:52:09;;;;;;;0.57;0.20;;;36.80;37.20;;;;;;10291941;28;20075;-66
2022/07/18 16:57:11;;;;;;;1.95;0.30;;;37.00;36.90;;;;;;10294173;28;20093;-65
2022/07/18 17:02:13;;;;;;;1.08;0.28;;;36.60;37.30;;;;;;10290657;28;20042;-65
2022/07/18 17:07:15;;;;;;;1.98;0.30;;;36.10;37.40;;;;;;10321747;28;20046;-66
2022/07/18 17:12:19;;;;;;;0.98;0.22;;;36.70;37.10;;;;;;10273685;28;20042;-65
2022/07/18 17:17:21;;;;;;;1.27;0.22;;;37.20;37.00;;;;;;10295072;28;20108;-64
2022/07/18 17:22:25;;;;;;;2.30;0.30;;;37.20;37.40;;;;;;10290098;28;20058;-65
2022/07/18 17:27:28;;;;;;;5.28;0.50;;;37.10;37.80;;;;;;10286515;28;20464;-65
2022/07/18 17:32:31;;;;;;;2.80;0.30;;;36.90;38.10;;;;;;10295504;28;20050;-66
2022/07/18 17:37:33;;;;;;;0.97;0.27;;;36.80;37.80;;;;;;10291577;28;20065;-65
2022/07/18 17:42:35;;;;;;;7.18;0.30;;;36.20;37.00;;;;;;10282025;28;20046;-65
2022/07/18 17:47:37;;;;;;;1.88;0.20;;;36.80;36.90;;;;;;10281576;28;20540;-65
2022/07/18 17:52:39;;;;;;;0.30;0.20;;;36.80;36.90;;;;;;10299948;28;20050;-65
2022/07/18 17:57:41;;;;;;;2.28;0.30;;;36.70;36.80;;;;;;10284344;28;20045;-64
2022/07/18 18:02:44;;;;;;;2.53;0.30;;;36.70;37.40;;;;;;10282405;28;20548;-65
2022/07/18 18:07:45;;;;;;;1.83;0.32;;;37.00;37.30;;;;;;10297794;28;20681;-64
2022/07/18 18:12:47;;;;;;;0.40;0.20;;;37.30;37.30;;;;;;10300860;28;20088;-64
2022/07/18 18:17:50;;;;;;;1.08;0.20;;;36.60;37.70;;;;;;10283429;28;20081;-65
2022/07/18 18:22:51;;;;;;;1.42;0.30;;;36.10;38.40;;;;;;10297576;28;20062;-66
2022/07/18 18:27:53;;;;;;;4.13;0.30;;;35.60;37.60;;;;;;10288313;28;20051;-65
2022/07/18 18:32:55;;;;;;;2.55;1.00;;;35.00;39.00;;;;;;10286688;28;20552;-64
2022/07/18 18:37:57;;;;;;;2.80;0.60;;;34.40;41.10;;;;;;10282934;28;20051;-65
2022/07/18 18:42:58;;;;;;;0.90;0.35;;;33.90;40.90;;;;;;10296436;28;20082;-65
2022/07/18 18:48:00;;;;;;;3.22;0.57;;;33.30;42.50;;;;;;10300435;28;20053;-65
2022/07/18 18:53:02;;;;;;;10.13;0.80;;;32.80;43.70;;;;;;10302325;28;20053;-65
2022/07/18 18:58:04;;;;;;;1.63;0.60;;;32.30;45.00;;;;;;10289582;28;20144;-64
2022/07/18 19:03:06;;;;;;;6.80;0.50;;;31.90;45.70;;;;;;10296219;28;20109;-65
2022/07/18 19:08:08;;;;;;;4.22;0.50;;;31.50;47.50;;;;;;10256032;28;20091;-64
2022/07/18 19:13:10;;;;;;;1.80;0.52;;;31.20;48.30;;;;;;10253857;28;20073;-64
2022/07/18 19:18:12;;;;;;;3.58;0.90;;;30.80;49.00;;;;;;10268681;28;20050;-64
2022/07/18 19:23:14;;;;;;;5.03;0.82;;;30.40;50.70;;;;;;10273925;28;20049;-64
2022/07/18 19:28:16;;;;;;;3.00;1.02;;;30.10;51.70;;;;;;10269581;28;20051;-64
2022/07/18 19:33:17;;;;;;;2.08;1.10;;;29.60;52.70;;;;;;10258188;28;20495;-65
2022/07/18 19:38:19;;;;;;;4.70;0.77;;;29.20;52.60;;;;;;10266187;28;20050;-65
2022/07/18 19:43:21;;;;;;;7.10;0.85;;;29.00;51.30;;;;;;10254240;28;20053;-64
2022/07/18 19:48:22;;;;;;;10.25;0.90;;;28.60;52.60;;;;;;10257202;28;20042;-64
2022/07/18 19:53:24;;;;;;;8.13;1.15;;;28.30;54.30;;;;;;10272931;28;20055;-67
2022/07/18 19:58:26;;;;;;;5.57;0.70;;;27.90;55.60;;;;;;10268458;28;20078;-65
2022/07/18 20:03:27;;;;;;;6.68;1.25;;;27.60;55.60;;;;;;10277952;28;20039;-65
2022/07/18 20:08:29;;;;;;;7.68;1.48;;;27.40;56.20;;;;;;10295255;28;20108;-66
2022/07/18 20:13:31;;;;;;;4.50;0.82;;;27.20;57.40;;;;;;10309063;28;20112;-65
2022/07/18 20:18:33;;;;;;;9.65;0.90;;;26.80;57.10;;;;;;10305757;28;20047;-65
2022/07/18 20:23:34;;;;;;;6.78;1.05;;;26.40;57.60;;;;;;10282114;28;20054;-65
2022/07/18 20:28:36;;;;;;;5.03;0.85;;;26.20;58.00;;;;;;10298838;28;20046;-60
2022/07/18 20:33:38;;;;;;;10.60;1.73;;;25.90;58.50;;;;;;10307618;28;20050;-58
2022/07/18 20:38:39;;;;;;;5.57;1.02;;;25.60;60.20;;;;;;10304993;28;20046;-59
2022/07/18 20:43:41;;;;;;;2.50;0.47;;;25.40;61.00;;;;;;10297651;28;20097;-59
2022/07/18 20:48:43;;;;;;;3.13;0.55;;;25.10;60.80;;;;;;10291109;28;20042;-59
2022/07/18 20:53:45;;;;;;;4.32;0.80;;;25.00;61.70;;;;;;10295247;28;20567;-60
2022/07/18 20:58:46;;;;;;;4.90;0.82;;;24.90;63.30;;;;;;10298351;28;20061;-60
2022/07/18 21:03:48;;;;;;;8.98;0.65;;;24.70;63.80;;;;;;10299935;28;20050;-61
2022/07/18 21:08:50;;;;;;;3.13;0.60;;;24.40;64.30;;;;;;10300382;28;20053;-60
2022/07/18 21:13:52;;;;;;;6.85;0.50;;;24.10;63.70;;;;;;10286633;28;20065;-61
2022/07/18 21:18:54;;;;;;;4.13;0.52;;;23.90;63.60;;;;;;10294700;28;20042;-61
2022/07/18 21:23:56;;;;;;;7.38;0.77;;;23.90;64.80;;;;;;10291011;28;20054;-61
2022/07/18 21:28:57;;;;;;;11.88;0.88;;;23.70;65.30;;;;;;10300823;28;20047;-60
2022/07/18 21:34:02;;;;;;;3.70;0.82;;;23.60;66.80;;;;;;10291540;28;20277;-60
2022/07/18 21:39:04;;;;;;;9.70;0.80;;;23.40;66.10;;;;;;10304211;28;20055;-61
2022/07/18 21:44:06;;;;;;;4.53;0.47;;;23.30;67.20;;;;;;10308103;28;20046;-61
2022/07/18 21:49:08;;;;;;;13.75;1.40;;;23.20;69.00;;;;;;10285163;28;20042;-60
2022/07/18 21:54:09;;;;;;;4.30;0.50;;;22.90;69.30;;;;;;10292358;28;20409;-59
2022/07/18 21:59:11;;;;;;;10.45;1.17;;;22.60;69.60;;;;;;10289877;28;20050;-61
2022/07/18 22:04:13;;;;;;;6.63;0.60;;;22.60;70.40;;;;;;10294726;28;20097;-61
2022/07/18 22:09:15;;;;;;;5.93;0.80;;;22.50;70.70;;;;;;10286328;28;20412;-61
2022/07/18 22:14:16;;;;;;;11.82;0.70;;;22.40;70.70;;;;;;10298563;28;20051;-60
2022/07/18 22:19:18;;;;;;;2.75;0.47;;;22.20;71.30;;;;;;10288444;28;20042;-60
2022/07/18 22:24:20;;;;;;;6.07;0.57;;;22.00;73.50;;;;;;10298178;28;20034;-60
2022/07/18 22:29:22;;;;;;;3.58;0.43;;;22.10;72.70;;;;;;10303249;28;20077;-60
2022/07/18 22:34:23;;;;;;;5.18;0.77;;;21.90;73.20;;;;;;10311148;28;20477;-59
2022/07/18 22:39:25;;;;;;;10.75;1.05;;;21.80;73.10;;;;;;10299464;28;20389;-60
2022/07/18 22:44:27;;;;;;;5.85;0.50;;;21.60;73.60;;;;;;10299306;28;20050;-60
2022/07/18 22:49:29;;;;;;;9.73;0.77;;;21.60;75.10;;;;;;10283836;28;20058;-61
2022/07/18 22:54:30;;;;;;;6.25;0.75;;;21.50;75.60;;;;;;10288991;28;20548;-61
2022/07/18 22:59:33;;;;;;;9.02;1.08;;;21.40;75.30;;;;;;10302019;28;20046;-60
2022/07/18 23:04:35;;;;;;;10.70;0.80;;;21.30;75.60;;;;;;10300458;28;20043;-60
2022/07/18 23:09:36;;;;;;;12.52;1.25;;;21.10;76.30;;;;;;10285132;28;20047;-60
2022/07/18 23:14:38;;;;;;;5.30;1.02;;;21.00;76.60;;;;;;10291861;28;20050;-60
2022/07/18 23:19:40;;;;;;;11.45;1.00;;;20.90;77.70;;;;;;10304407;28;20038;-60
2022/07/18 23:24:41;;;;;;;12.85;0.82;;;20.90;77.10;;;;;;10298950;28;20055;-60
2022/07/18 23:29:43;;;;;;;17.60;1.25;;;20.80;76.80;;;;;;10279674;28;20054;-60
2022/07/18 23:34:45;;;;;;;12.48;1.00;;;20.70;77.30;;;;;;10296170;28;20042;-60
2022/07/18 23:39:46;;;;;;;6.50;1.45;;;20.60;78.00;;;;;;10295016;28;20074;-60
2022/07/18 23:44:48;;;;;;;3.47;1.02;;;20.40;78.60;;;;;;10304901;28;20046;-61
2022/07/18 23:49:50;;;;;;;10.13;1.20;;;20.40;79.60;;;;;;10309705;28;20054;-62
2022/07/18 23:54:52;;;;;;;9.38;0.82;;;20.30;80.90;;;;;;10286847;28;20059;-62
2022/07/18 23:59:54;;;;;;;14.35;1.08;;;20.20;81.40;;;;;;10258995;28;20058;-60
